sensor_id;sensor_type;location;lat;lon;timestamp;temperature;humidity
18648;DHT22;9453;50.294;18.644;2023-04-01T04:06:03;7.80;99.90
18648;DHT22;9453;50.294;18.644;2023-04-01T04:08:30;7.80;99.90
18648;DHT22;9453;50.294;18.644;2023-04-01T04:11:06;7.80;99.90
18648;DHT22;9453;50.294;18.644;2023-04-01T04:13:33;7.80;99.90
18648;DHT22;9453;50.294;18.644;2023-04-01T04:16:01;7.80;99.90
18648;DHT22;9453;50.294;18.644;2023-04-01T04:18:29;7.70;99.90
18648;DHT22;9453;50.294;18.644;2023-04-01T04:20:56;7.70;99.90
18648;DHT22;9453;50.294;18.644;2023-04-01T04:23:25;7.80;99.90
18648;DHT22;9453;50.294;18.644;2023-04-01T04:25:56;7.70;99.90
18648;DHT22;9453;50.294;18.644;2023-04-01T04:28:24;7.80;99.90
18648;DHT22;9453;50.294;18.644;2023-04-01T04:30:51;7.70;99.90
18648;DHT22;9453;50.294;18.644;2023-04-01T04:33:19;7.80;99.90
18648;DHT22;9453;50.294;18.644;2023-04-01T04:35:46;7.90;99.90
18648;DHT22;9453;50.294;18.644;2023-04-01T04:38:13;7.90;99.90
18648;DHT22;9453;50.294;18.644;2023-04-01T04:40:42;8.00;99.90
18648;DHT22;9453;50.294;18.644;2023-04-01T04:43:10;8.00;99.90
18648;DHT22;9453;50.294;18.644;2023-04-01T04:45:37;8.00;99.90
18648;DHT22;9453;50.294;18.644;2023-04-01T04:48:06;8.00;99.90
18648;DHT22;9453;50.294;18.644;2023-04-01T04:50:34;8.00;99.90
18648;DHT22;9453;50.294;18.644;2023-04-01T04:53:01;8.10;99.90
18648;DHT22;9453;50.294;18.644;2023-04-01T04:55:28;8.10;99.90
18648;DHT22;9453;50.294;18.644;2023-04-01T04:57:57;8.10;99.90
18648;DHT22;9453;50.294;18.644;2023-04-01T05:00:24;8.20;99.90
18648;DHT22;9453;50.294;18.644;2023-04-01T05:02:51;8.20;99.90
18648;DHT22;9453;50.294;18.644;2023-04-01T05:05:20;8.30;99.90
18648;DHT22;9453;50.294;18.644;2023-04-01T05:07:47;8.30;99.90
18648;DHT22;9453;50.294;18.644;2023-04-01T05:10:14;8.40;99.90
18648;DHT22;9453;50.294;18.644;2023-04-01T05:12:41;8.50;99.90
18648;DHT22;9453;50.294;18.644;2023-04-01T05:15:10;8.50;99.90
18648;DHT22;9453;50.294;18.644;2023-04-01T05:17:37;8.50;99.90
18648;DHT22;9453;50.294;18.644;2023-04-01T05:20:05;8.50;99.90
18648;DHT22;9453;50.294;18.644;2023-04-01T05:22:33;8.60;99.90
18648;DHT22;9453;50.294;18.644;2023-04-01T05:25:00;8.70;99.90
18648;DHT22;9453;50.294;18.644;2023-04-01T05:27:27;8.70;99.90
18648;DHT22;9453;50.294;18.644;2023-04-01T05:29:54;8.70;99.90
18648;DHT22;9453;50.294;18.644;2023-04-01T05:32:23;8.70;99.90
18648;DHT22;9453;50.294;18.644;2023-04-01T05:34:50;8.70;99.90
18648;DHT22;9453;50.294;18.644;2023-04-01T05:37:18;8.70;99.90
18648;DHT22;9453;50.294;18.644;2023-04-01T05:39:45;8.70;99.90
18648;DHT22;9453;50.294;18.644;2023-04-01T05:42:14;8.70;99.90
18648;DHT22;9453;50.294;18.644;2023-04-01T05:44:41;8.80;99.90
18648;DHT22;9453;50.294;18.644;2023-04-01T05:47:08;8.90;99.90
18648;DHT22;9453;50.294;18.644;2023-04-01T05:49:37;9.00;99.90
18648;DHT22;9453;50.294;18.644;2023-04-01T05:52:04;9.10;99.90
18648;DHT22;9453;50.294;18.644;2023-04-01T05:54:31;9.10;99.90
18648;DHT22;9453;50.294;18.644;2023-04-01T05:56:58;9.10;99.90
18648;DHT22;9453;50.294;18.644;2023-04-01T05:59:25;9.10;99.90
18648;DHT22;9453;50.294;18.644;2023-04-01T06:01:52;9.10;99.90
18648;DHT22;9453;50.294;18.644;2023-04-01T06:04:19;9.20;99.90
18648;DHT22;9453;50.294;18.644;2023-04-01T06:06:48;9.20;99.90
18648;DHT22;9453;50.294;18.644;2023-04-01T06:09:17;9.30;99.90
18648;DHT22;9453;50.294;18.644;2023-04-01T06:11:55;9.30;99.90
18648;DHT22;9453;50.294;18.644;2023-04-01T06:14:32;9.20;99.90
18648;DHT22;9453;50.294;18.644;2023-04-01T06:17:18;9.30;99.90
18648;DHT22;9453;50.294;18.644;2023-04-01T06:19:54;9.30;99.90
18648;DHT22;9453;50.294;18.644;2023-04-01T06:25:32;9.20;99.90
18648;DHT22;9453;50.294;18.644;2023-04-01T06:28:16;9.20;99.90
18648;DHT22;9453;50.294;18.644;2023-04-01T06:30:58;9.10;99.90
18648;DHT22;9453;50.294;18.644;2023-04-01T06:33:40;9.10;99.90
18648;DHT22;9453;50.294;18.644;2023-04-01T06:39:22;9.20;99.90
18648;DHT22;9453;50.294;18.644;2023-04-01T06:42:31;9.20;99.90
18648;DHT22;9453;50.294;18.644;2023-04-01T06:45:09;9.30;99.90
18648;DHT22;9453;50.294;18.644;2023-04-01T06:47:52;9.30;99.90
18648;DHT22;9453;50.294;18.644;2023-04-01T06:50:28;9.30;99.90
18648;DHT22;9453;50.294;18.644;2023-04-01T06:53:03;9.30;99.90
18648;DHT22;9453;50.294;18.644;2023-04-01T06:55:38;9.30;99.90
18648;DHT22;9453;50.294;18.644;2023-04-01T06:58:14;9.40;99.90
18648;DHT22;9453;50.294;18.644;2023-04-01T07:00:44;9.40;99.90
18648;DHT22;9453;50.294;18.644;2023-04-01T07:03:19;9.40;99.90
18648;DHT22;9453;50.294;18.644;2023-04-01T07:05:47;9.50;99.90
18648;DHT22;9453;50.294;18.644;2023-04-01T07:08:18;9.60;99.90
18648;DHT22;9453;50.294;18.644;2023-04-01T07:10:51;9.70;99.90
18648;DHT22;9453;50.294;18.644;2023-04-01T07:13:22;9.70;99.90
18648;DHT22;9453;50.294;18.644;2023-04-01T07:15:59;9.70;99.90
18648;DHT22;9453;50.294;18.644;2023-04-01T07:18:34;9.90;99.90
18648;DHT22;9453;50.294;18.644;2023-04-01T07:21:04;10.00;99.90
18648;DHT22;9453;50.294;18.644;2023-04-01T07:23:36;10.20;99.90
18648;DHT22;9453;50.294;18.644;2023-04-01T07:26:15;10.40;99.90
18648;DHT22;9453;50.294;18.644;2023-04-01T07:28:42;10.60;99.90
18648;DHT22;9453;50.294;18.644;2023-04-01T07:31:18;10.70;99.90
18648;DHT22;9453;50.294;18.644;2023-04-01T07:33:54;10.90;99.90
18648;DHT22;9453;50.294;18.644;2023-04-01T07:36:32;10.80;99.90
18648;DHT22;9453;50.294;18.644;2023-04-01T07:39:10;10.80;99.90
18648;DHT22;9453;50.294;18.644;2023-04-01T07:41:51;10.90;99.90
18648;DHT22;9453;50.294;18.644;2023-04-01T07:44:25;10.80;99.90
18648;DHT22;9453;50.294;18.644;2023-04-01T07:47:25;10.80;99.90
18648;DHT22;9453;50.294;18.644;2023-04-01T07:50:04;10.70;99.90
18648;DHT22;9453;50.294;18.644;2023-04-01T07:52:38;10.70;99.90
18648;DHT22;9453;50.294;18.644;2023-04-01T07:55:14;10.70;99.90
18648;DHT22;9453;50.294;18.644;2023-04-01T07:57:49;10.80;99.90
18648;DHT22;9453;50.294;18.644;2023-04-01T08:00:22;10.90;99.90
18648;DHT22;9453;50.294;18.644;2023-04-01T08:05:45;11.20;99.90
18648;DHT22;9453;50.294;18.644;2023-04-01T08:08:18;11.30;99.90
18648;DHT22;9453;50.294;18.644;2023-04-01T08:10:51;11.40;99.90
18648;DHT22;9453;50.294;18.644;2023-04-01T08:13:29;11.30;99.90
18648;DHT22;9453;50.294;18.644;2023-04-01T08:16:08;11.20;99.90
18648;DHT22;9453;50.294;18.644;2023-04-01T08:18:43;10.90;99.90
18648;DHT22;9453;50.294;18.644;2023-04-01T08:21:15;10.80;99.90
18648;DHT22;9453;50.294;18.644;2023-04-01T08:23:46;10.70;99.90
18648;DHT22;9453;50.294;18.644;2023-04-01T08:26:18;10.50;99.90
18648;DHT22;9453;50.294;18.644;2023-04-01T08:28:52;10.50;99.90
18648;DHT22;9453;50.294;18.644;2023-04-01T08:31:26;10.60;99.90
18648;DHT22;9453;50.294;18.644;2023-04-01T08:33:56;10.80;99.90
18648;DHT22;9453;50.294;18.644;2023-04-01T08:36:28;10.80;99.90
18648;DHT22;9453;50.294;18.644;2023-04-01T08:38:57;11.00;99.90
18648;DHT22;9453;50.294;18.644;2023-04-01T08:41:37;11.20;99.90
18648;DHT22;9453;50.294;18.644;2023-04-01T08:44:36;11.20;99.90
18648;DHT22;9453;50.294;18.644;2023-04-01T08:53:34;11.20;99.90
18648;DHT22;9453;50.294;18.644;2023-04-01T08:56:13;11.10;99.90
18648;DHT22;9453;50.294;18.644;2023-04-01T08:59:08;11.30;99.90
18648;DHT22;9453;50.294;18.644;2023-04-01T09:02:02;11.60;99.90
18648;DHT22;9453;50.294;18.644;2023-04-01T09:05:05;11.50;99.90
18648;DHT22;9453;50.294;18.644;2023-04-01T09:07:40;11.50;99.90
18648;DHT22;9453;50.294;18.644;2023-04-01T09:10:34;11.50;99.90
18648;DHT22;9453;50.294;18.644;2023-04-01T09:13:21;11.80;99.90
18648;DHT22;9453;50.294;18.644;2023-04-01T09:16:22;12.20;99.90
18648;DHT22;9453;50.294;18.644;2023-04-01T09:19:24;12.40;99.90
18648;DHT22;9453;50.294;18.644;2023-04-01T09:22:00;12.60;99.90
18648;DHT22;9453;50.294;18.644;2023-04-01T09:24:43;12.90;99.90
18648;DHT22;9453;50.294;18.644;2023-04-01T09:27:26;12.80;99.90
18648;DHT22;9453;50.294;18.644;2023-04-01T09:30:17;13.00;99.90
18648;DHT22;9453;50.294;18.644;2023-04-01T09:35:46;13.30;99.90
18648;DHT22;9453;50.294;18.644;2023-04-01T09:38:29;13.50;99.90
18648;DHT22;9453;50.294;18.644;2023-04-01T09:40:58;13.40;99.90
18648;DHT22;9453;50.294;18.644;2023-04-01T09:43:33;13.40;99.90
18648;DHT22;9453;50.294;18.644;2023-04-01T09:46:23;13.00;99.90
18648;DHT22;9453;50.294;18.644;2023-04-01T09:49:26;12.90;99.90
18648;DHT22;9453;50.294;18.644;2023-04-01T09:52:14;12.60;99.90
18648;DHT22;9453;50.294;18.644;2023-04-01T09:54:59;12.70;99.90
18648;DHT22;9453;50.294;18.644;2023-04-01T09:57:51;12.90;99.90
18648;DHT22;9453;50.294;18.644;2023-04-01T10:00:51;13.20;99.90
18648;DHT22;9453;50.294;18.644;2023-04-01T10:03:58;13.50;99.90
18648;DHT22;9453;50.294;18.644;2023-04-01T10:07:08;13.80;99.90
18648;DHT22;9453;50.294;18.644;2023-04-01T10:13:26;13.50;99.90
18648;DHT22;9453;50.294;18.644;2023-04-01T10:16:22;13.60;99.90
18648;DHT22;9453;50.294;18.644;2023-04-01T10:19:04;13.50;99.90
18648;DHT22;9453;50.294;18.644;2023-04-01T10:25:12;12.40;99.90
18648;DHT22;9453;50.294;18.644;2023-04-01T10:28:05;12.20;99.90
18648;DHT22;9453;50.294;18.644;2023-04-01T10:31:05;12.40;99.90
18648;DHT22;9453;50.294;18.644;2023-04-01T10:34:05;12.50;99.90
18648;DHT22;9453;50.294;18.644;2023-04-01T10:36:52;13.00;99.90
18648;DHT22;9453;50.294;18.644;2023-04-01T10:39:50;13.10;99.90
18648;DHT22;9453;50.294;18.644;2023-04-01T10:43:17;13.60;99.90
18648;DHT22;9453;50.294;18.644;2023-04-01T10:52:39;13.30;99.90
18648;DHT22;9453;50.294;18.644;2023-04-01T10:55:35;13.40;99.90
18648;DHT22;9453;50.294;18.644;2023-04-01T10:58:29;13.20;99.90
18648;DHT22;9453;50.294;18.644;2023-04-01T11:01:22;13.20;99.90
18648;DHT22;9453;50.294;18.644;2023-04-01T11:13:18;14.00;99.90
18648;DHT22;9453;50.294;18.644;2023-04-01T11:16:24;14.10;99.30
18648;DHT22;9453;50.294;18.644;2023-04-01T11:22:30;14.30;99.90
18648;DHT22;9453;50.294;18.644;2023-04-01T11:31:25;14.70;97.00
18648;DHT22;9453;50.294;18.644;2023-04-01T11:34:01;14.60;96.70
18648;DHT22;9453;50.294;18.644;2023-04-01T11:36:43;14.40;96.20
18648;DHT22;9453;50.294;18.644;2023-04-01T11:39:22;14.30;96.60
18648;DHT22;9453;50.294;18.644;2023-04-01T11:41:58;14.10;95.40
18648;DHT22;9453;50.294;18.644;2023-04-01T11:44:29;13.70;96.40
18648;DHT22;9453;50.294;18.644;2023-04-01T11:47:30;13.70;97.40
18648;DHT22;9453;50.294;18.644;2023-04-01T11:50:18;13.90;96.90
18648;DHT22;9453;50.294;18.644;2023-04-01T11:53:01;13.90;95.90
18648;DHT22;9453;50.294;18.644;2023-04-01T11:55:38;13.80;94.80
18648;DHT22;9453;50.294;18.644;2023-04-01T11:58:20;13.80;95.00
18648;DHT22;9453;50.294;18.644;2023-04-01T12:01:08;13.80;95.10
18648;DHT22;9453;50.294;18.644;2023-04-01T12:04:00;14.00;95.60
18648;DHT22;9453;50.294;18.644;2023-04-01T12:06:36;14.20;95.40
18648;DHT22;9453;50.294;18.644;2023-04-01T12:09:12;14.40;94.60
18648;DHT22;9453;50.294;18.644;2023-04-01T12:11:51;14.50;93.00
18648;DHT22;9453;50.294;18.644;2023-04-01T12:14:25;14.70;93.10
18648;DHT22;9453;50.294;18.644;2023-04-01T12:17:02;14.80;92.80
18648;DHT22;9453;50.294;18.644;2023-04-01T12:19:41;14.80;92.60
18648;DHT22;9453;50.294;18.644;2023-04-01T12:22:28;14.70;92.20
18648;DHT22;9453;50.294;18.644;2023-04-01T12:25:07;14.60;91.70
18648;DHT22;9453;50.294;18.644;2023-04-01T12:27:50;14.40;91.40
18648;DHT22;9453;50.294;18.644;2023-04-01T12:30:37;14.30;92.10
18648;DHT22;9453;50.294;18.644;2023-04-01T12:33:28;14.50;92.80
18648;DHT22;9453;50.294;18.644;2023-04-01T12:36:10;14.40;91.80
18648;DHT22;9453;50.294;18.644;2023-04-01T12:38:48;14.20;92.00
18648;DHT22;9453;50.294;18.644;2023-04-01T12:41:24;14.10;91.30
18648;DHT22;9453;50.294;18.644;2023-04-01T12:44:13;14.10;91.60
18648;DHT22;9453;50.294;18.644;2023-04-01T12:47:00;14.10;92.20
18648;DHT22;9453;50.294;18.644;2023-04-01T12:49:47;14.20;92.20
18648;DHT22;9453;50.294;18.644;2023-04-01T12:52:25;14.20;92.00
18648;DHT22;9453;50.294;18.644;2023-04-01T12:55:33;14.10;92.00
18648;DHT22;9453;50.294;18.644;2023-04-01T13:01:47;14.10;92.80
18648;DHT22;9453;50.294;18.644;2023-04-01T13:04:41;14.00;92.70
18648;DHT22;9453;50.294;18.644;2023-04-01T13:07:27;14.00;93.10
18648;DHT22;9453;50.294;18.644;2023-04-01T13:10:02;13.70;93.80
18648;DHT22;9453;50.294;18.644;2023-04-01T13:12:43;13.40;99.90
18648;DHT22;9453;50.294;18.644;2023-04-01T13:15:25;12.90;99.90
18648;DHT22;9453;50.294;18.644;2023-04-01T13:17:59;12.30;99.90
18648;DHT22;9453;50.294;18.644;2023-04-01T13:20:39;12.20;99.90
18648;DHT22;9453;50.294;18.644;2023-04-01T13:23:19;12.30;99.90
18648;DHT22;9453;50.294;18.644;2023-04-01T13:25:54;12.50;99.90
18648;DHT22;9453;50.294;18.644;2023-04-01T13:28:30;12.70;99.90
18648;DHT22;9453;50.294;18.644;2023-04-01T13:31:03;12.80;99.90
18648;DHT22;9453;50.294;18.644;2023-04-01T13:33:40;13.10;99.90
18648;DHT22;9453;50.294;18.644;2023-04-01T13:36:19;13.00;99.90
18648;DHT22;9453;50.294;18.644;2023-04-01T13:39:13;13.00;99.90
18648;DHT22;9453;50.294;18.644;2023-04-01T13:44:43;13.00;99.90
18648;DHT22;9453;50.294;18.644;2023-04-01T13:47:29;12.90;99.90
18648;DHT22;9453;50.294;18.644;2023-04-01T13:53:30;12.90;99.90
18648;DHT22;9453;50.294;18.644;2023-04-01T13:56:15;12.90;99.90
18648;DHT22;9453;50.294;18.644;2023-04-01T13:59:02;12.90;99.90
18648;DHT22;9453;50.294;18.644;2023-04-01T14:01:37;12.90;99.90
18648;DHT22;9453;50.294;18.644;2023-04-01T14:04:39;12.80;99.90
18648;DHT22;9453;50.294;18.644;2023-04-01T14:07:18;12.40;99.90
18648;DHT22;9453;50.294;18.644;2023-04-01T14:10:05;11.90;99.90
18648;DHT22;9453;50.294;18.644;2023-04-01T14:12:41;11.20;99.90
18648;DHT22;9453;50.294;18.644;2023-04-01T14:15:33;10.90;99.90
18648;DHT22;9453;50.294;18.644;2023-04-01T14:18:16;10.50;99.90
18648;DHT22;9453;50.294;18.644;2023-04-01T14:20:50;10.30;99.90
18648;DHT22;9453;50.294;18.644;2023-04-01T14:23:42;10.30;99.90
18648;DHT22;9453;50.294;18.644;2023-04-01T14:26:26;10.50;99.90
18648;DHT22;9453;50.294;18.644;2023-04-01T14:29:10;10.70;99.90
18648;DHT22;9453;50.294;18.644;2023-04-01T14:32:02;10.70;99.90
18648;DHT22;9453;50.294;18.644;2023-04-01T14:34:54;10.80;99.90
18648;DHT22;9453;50.294;18.644;2023-04-01T14:37:37;10.80;99.90
18648;DHT22;9453;50.294;18.644;2023-04-01T14:40:27;10.80;99.90
18648;DHT22;9453;50.294;18.644;2023-04-01T14:43:10;10.70;99.90
18648;DHT22;9453;50.294;18.644;2023-04-01T14:46:05;10.70;99.90
18648;DHT22;9453;50.294;18.644;2023-04-01T14:48:37;10.70;99.90
18648;DHT22;9453;50.294;18.644;2023-04-01T14:51:13;10.80;99.90
18648;DHT22;9453;50.294;18.644;2023-04-01T14:53:44;11.00;99.90
18648;DHT22;9453;50.294;18.644;2023-04-01T14:56:35;11.00;99.90
18648;DHT22;9453;50.294;18.644;2023-04-01T14:59:13;11.00;99.90
18648;DHT22;9453;50.294;18.644;2023-04-01T15:01:47;11.00;99.90
18648;DHT22;9453;50.294;18.644;2023-04-01T15:04:43;10.80;99.90
18648;DHT22;9453;50.294;18.644;2023-04-01T15:10:58;10.00;99.90
18648;DHT22;9453;50.294;18.644;2023-04-01T15:13:50;9.90;99.90
18648;DHT22;9453;50.294;18.644;2023-04-01T15:16:25;10.00;99.90
18648;DHT22;9453;50.294;18.644;2023-04-01T15:19:03;10.00;99.90
18648;DHT22;9453;50.294;18.644;2023-04-01T15:24:42;10.20;99.90
18648;DHT22;9453;50.294;18.644;2023-04-01T15:27:29;10.30;99.90
18648;DHT22;9453;50.294;18.644;2023-04-01T15:32:53;10.20;99.90
18648;DHT22;9453;50.294;18.644;2023-04-01T15:35:34;10.20;99.90
18648;DHT22;9453;50.294;18.644;2023-04-01T15:38:08;10.20;99.90
18648;DHT22;9453;50.294;18.644;2023-04-01T15:40:42;10.20;99.90
18648;DHT22;9453;50.294;18.644;2023-04-01T15:43:18;10.20;99.90
18648;DHT22;9453;50.294;18.644;2023-04-01T15:45:55;9.70;99.90
18648;DHT22;9453;50.294;18.644;2023-04-01T15:48:33;9.20;99.90
18648;DHT22;9453;50.294;18.644;2023-04-01T15:51:14;8.90;99.90
18648;DHT22;9453;50.294;18.644;2023-04-01T15:53:53;8.80;99.90
18648;DHT22;9453;50.294;18.644;2023-04-01T15:56:28;8.70;99.90
18648;DHT22;9453;50.294;18.644;2023-04-01T15:59:14;8.70;99.90
18648;DHT22;9453;50.294;18.644;2023-04-01T16:01:48;8.70;99.90
18648;DHT22;9453;50.294;18.644;2023-04-01T16:04:32;8.80;99.90
18648;DHT22;9453;50.294;18.644;2023-04-01T16:10:17;8.80;99.90
18648;DHT22;9453;50.294;18.644;2023-04-01T16:12:58;8.80;99.90
18648;DHT22;9453;50.294;18.644;2023-04-01T16:15:32;8.80;99.90
18648;DHT22;9453;50.294;18.644;2023-04-01T16:18:20;8.80;99.90
18648;DHT22;9453;50.294;18.644;2023-04-01T16:20:56;8.90;99.90
18648;DHT22;9453;50.294;18.644;2023-04-01T16:23:34;8.80;99.90
18648;DHT22;9453;50.294;18.644;2023-04-01T16:26:07;8.80;99.90
18648;DHT22;9453;50.294;18.644;2023-04-01T16:28:40;8.80;99.90
18648;DHT22;9453;50.294;18.644;2023-04-01T16:31:14;8.70;99.90
18648;DHT22;9453;50.294;18.644;2023-04-01T16:33:47;8.70;99.90
18648;DHT22;9453;50.294;18.644;2023-04-01T16:36:24;8.80;99.90
18648;DHT22;9453;50.294;18.644;2023-04-01T16:39:07;8.80;99.90
18648;DHT22;9453;50.294;18.644;2023-04-01T16:41:38;8.80;99.90
18648;DHT22;9453;50.294;18.644;2023-04-01T16:44:13;8.90;99.90
18648;DHT22;9453;50.294;18.644;2023-04-01T16:46:41;8.80;99.90
18648;DHT22;9453;50.294;18.644;2023-04-01T16:49:32;8.80;99.90
18648;DHT22;9453;50.294;18.644;2023-04-01T16:52:15;8.70;99.90
18648;DHT22;9453;50.294;18.644;2023-04-01T16:54:50;8.70;99.90
18648;DHT22;9453;50.294;18.644;2023-04-01T16:57:20;8.70;99.90
18648;DHT22;9453;50.294;18.644;2023-04-01T16:59:55;8.80;99.90
18648;DHT22;9453;50.294;18.644;2023-04-01T17:02:26;8.80;99.90
18648;DHT22;9453;50.294;18.644;2023-04-01T17:05:00;8.80;99.90
18648;DHT22;9453;50.294;18.644;2023-04-01T17:07:40;8.80;99.90
18648;DHT22;9453;50.294;18.644;2023-04-01T17:10:28;8.80;99.90
18648;DHT22;9453;50.294;18.644;2023-04-01T17:13:09;8.80;99.90
18648;DHT22;9453;50.294;18.644;2023-04-01T17:15:42;8.80;99.90
18648;DHT22;9453;50.294;18.644;2023-04-01T17:18:14;8.80;99.90
18648;DHT22;9453;50.294;18.644;2023-04-01T17:20:49;8.70;99.90
18648;DHT22;9453;50.294;18.644;2023-04-01T17:23:21;8.70;99.90
18648;DHT22;9453;50.294;18.644;2023-04-01T17:29:00;8.80;99.90
18648;DHT22;9453;50.294;18.644;2023-04-01T17:31:41;8.80;99.90
18648;DHT22;9453;50.294;18.644;2023-04-01T17:34:23;8.80;99.90
18648;DHT22;9453;50.294;18.644;2023-04-01T17:37:02;8.80;99.90
18648;DHT22;9453;50.294;18.644;2023-04-01T17:40:00;8.80;99.90
18648;DHT22;9453;50.294;18.644;2023-04-01T17:42:40;8.80;99.90
18648;DHT22;9453;50.294;18.644;2023-04-01T17:45:16;8.80;99.90
18648;DHT22;9453;50.294;18.644;2023-04-01T17:47:52;8.80;99.90
18648;DHT22;9453;50.294;18.644;2023-04-01T17:50:24;8.70;99.90
18648;DHT22;9453;50.294;18.644;2023-04-01T17:53:09;8.70;99.90
18648;DHT22;9453;50.294;18.644;2023-04-01T17:56:11;8.70;99.90
18648;DHT22;9453;50.294;18.644;2023-04-01T17:58:45;8.70;99.90
18648;DHT22;9453;50.294;18.644;2023-04-01T18:01:22;8.60;99.90
18648;DHT22;9453;50.294;18.644;2023-04-01T18:04:06;8.60;99.90
18648;DHT22;9453;50.294;18.644;2023-04-01T18:06:36;8.60;99.90
18648;DHT22;9453;50.294;18.644;2023-04-01T18:09:16;8.70;99.90
18648;DHT22;9453;50.294;18.644;2023-04-01T18:11:57;8.80;99.90
18648;DHT22;9453;50.294;18.644;2023-04-01T18:14:54;8.80;99.90
18648;DHT22;9453;50.294;18.644;2023-04-01T18:17:37;8.80;99.90
18648;DHT22;9453;50.294;18.644;2023-04-01T18:20:32;8.80;99.90
18648;DHT22;9453;50.294;18.644;2023-04-01T18:23:04;8.80;99.90
18648;DHT22;9453;50.294;18.644;2023-04-01T18:25:35;8.80;99.90
18648;DHT22;9453;50.294;18.644;2023-04-01T18:28:20;8.80;99.90
18648;DHT22;9453;50.294;18.644;2023-04-01T18:30:54;8.80;99.90
18648;DHT22;9453;50.294;18.644;2023-04-01T18:33:29;8.90;99.90
18648;DHT22;9453;50.294;18.644;2023-04-01T18:36:08;8.80;99.90
18648;DHT22;9453;50.294;18.644;2023-04-01T18:38:37;8.70;99.90
18648;DHT22;9453;50.294;18.644;2023-04-01T18:41:15;8.70;99.90
18648;DHT22;9453;50.294;18.644;2023-04-01T18:43:48;8.60;99.90
18648;DHT22;9453;50.294;18.644;2023-04-01T18:46:29;8.60;99.90
18648;DHT22;9453;50.294;18.644;2023-04-01T18:49:05;8.60;99.90
18648;DHT22;9453;50.294;18.644;2023-04-01T18:51:39;8.50;99.90
18648;DHT22;9453;50.294;18.644;2023-04-01T18:54:12;8.60;99.90
18648;DHT22;9453;50.294;18.644;2023-04-01T18:56:41;8.50;99.90
18648;DHT22;9453;50.294;18.644;2023-04-01T18:59:14;8.50;99.90
18648;DHT22;9453;50.294;18.644;2023-04-01T19:01:51;8.50;99.90
18648;DHT22;9453;50.294;18.644;2023-04-01T19:04:26;8.50;99.90
18648;DHT22;9453;50.294;18.644;2023-04-01T19:06:57;8.50;99.90
18648;DHT22;9453;50.294;18.644;2023-04-01T19:09:27;8.50;99.90
18648;DHT22;9453;50.294;18.644;2023-04-01T19:15:31;8.50;99.90
18648;DHT22;9453;50.294;18.644;2023-04-01T19:18:26;8.50;99.90
18648;DHT22;9453;50.294;18.644;2023-04-01T19:21:02;8.50;99.90
18648;DHT22;9453;50.294;18.644;2023-04-01T19:24:00;8.40;99.90
18648;DHT22;9453;50.294;18.644;2023-04-01T19:26:34;8.40;99.90
18648;DHT22;9453;50.294;18.644;2023-04-01T19:29:05;8.40;99.90
18648;DHT22;9453;50.294;18.644;2023-04-01T19:31:44;8.40;99.90
18648;DHT22;9453;50.294;18.644;2023-04-01T19:34:25;8.40;99.90
18648;DHT22;9453;50.294;18.644;2023-04-01T19:36:55;8.50;99.90
18648;DHT22;9453;50.294;18.644;2023-04-01T19:39:33;8.50;99.90
18648;DHT22;9453;50.294;18.644;2023-04-01T19:42:07;8.50;99.90
18648;DHT22;9453;50.294;18.644;2023-04-01T19:44:42;8.50;99.90
18648;DHT22;9453;50.294;18.644;2023-04-01T19:47:18;8.50;99.90
18648;DHT22;9453;50.294;18.644;2023-04-01T19:49:55;8.50;99.90
18648;DHT22;9453;50.294;18.644;2023-04-01T19:52:31;8.50;99.90
18648;DHT22;9453;50.294;18.644;2023-04-01T19:55:04;8.60;99.90
18648;DHT22;9453;50.294;18.644;2023-04-01T19:57:40;8.70;99.90
18648;DHT22;9453;50.294;18.644;2023-04-01T20:00:19;8.80;99.90
18648;DHT22;9453;50.294;18.644;2023-04-01T20:03:04;8.80;99.90
18648;DHT22;9453;50.294;18.644;2023-04-01T20:08:27;8.90;99.90
18648;DHT22;9453;50.294;18.644;2023-04-01T20:11:06;8.90;99.90
18648;DHT22;9453;50.294;18.644;2023-04-01T20:13:45;8.80;99.90
18648;DHT22;9453;50.294;18.644;2023-04-01T20:16:15;8.80;99.90
18648;DHT22;9453;50.294;18.644;2023-04-01T20:18:48;8.80;99.90
18648;DHT22;9453;50.294;18.644;2023-04-01T20:21:27;8.80;99.90
18648;DHT22;9453;50.294;18.644;2023-04-01T20:23:58;8.80;99.90
18648;DHT22;9453;50.294;18.644;2023-04-01T20:26:30;8.70;99.90
18648;DHT22;9453;50.294;18.644;2023-04-01T20:29:12;8.70;99.90
18648;DHT22;9453;50.294;18.644;2023-04-01T20:31:42;8.60;99.90
18648;DHT22;9453;50.294;18.644;2023-04-01T20:34:35;8.70;99.90
18648;DHT22;9453;50.294;18.644;2023-04-01T20:37:21;8.80;99.90
18648;DHT22;9453;50.294;18.644;2023-04-01T20:46:11;8.90;99.90
18648;DHT22;9453;50.294;18.644;2023-04-01T20:49:15;8.90;99.90
18648;DHT22;9453;50.294;18.644;2023-04-01T20:51:50;8.90;99.90
18648;DHT22;9453;50.294;18.644;2023-04-01T20:54:29;8.90;99.90
18648;DHT22;9453;50.294;18.644;2023-04-01T20:57:06;8.90;99.90
18648;DHT22;9453;50.294;18.644;2023-04-01T21:02:51;8.90;99.90
18648;DHT22;9453;50.294;18.644;2023-04-01T21:05:50;8.90;99.90
18648;DHT22;9453;50.294;18.644;2023-04-01T21:08:26;8.90;99.90
18648;DHT22;9453;50.294;18.644;2023-04-01T21:11:02;8.90;99.90
18648;DHT22;9453;50.294;18.644;2023-04-01T21:13:40;8.90;99.90
18648;DHT22;9453;50.294;18.644;2023-04-01T21:16:16;8.80;99.90
18648;DHT22;9453;50.294;18.644;2023-04-01T21:18:58;8.90;99.90
18648;DHT22;9453;50.294;18.644;2023-04-01T21:21:44;8.90;99.90
18648;DHT22;9453;50.294;18.644;2023-04-01T21:24:39;8.90;99.90
18648;DHT22;9453;50.294;18.644;2023-04-01T21:27:20;9.00;99.90
18648;DHT22;9453;50.294;18.644;2023-04-01T21:29:59;9.00;99.90
18648;DHT22;9453;50.294;18.644;2023-04-01T21:32:40;9.10;99.90
18648;DHT22;9453;50.294;18.644;2023-04-01T21:35:21;9.10;99.90
18648;DHT22;9453;50.294;18.644;2023-04-01T21:38:00;9.20;99.90
18648;DHT22;9453;50.294;18.644;2023-04-01T21:40:45;9.20;99.90
18648;DHT22;9453;50.294;18.644;2023-04-01T21:43:28;9.20;99.90
18648;DHT22;9453;50.294;18.644;2023-04-01T21:46:26;9.20;99.90
18648;DHT22;9453;50.294;18.644;2023-04-01T21:52:10;9.30;99.90
18648;DHT22;9453;50.294;18.644;2023-04-01T21:55:14;9.30;99.90
18648;DHT22;9453;50.294;18.644;2023-04-01T21:58:13;9.20;99.90
18648;DHT22;9453;50.294;18.644;2023-04-01T22:00:54;9.10;99.90
18648;DHT22;9453;50.294;18.644;2023-04-01T22:03:57;9.10;99.90
18648;DHT22;9453;50.294;18.644;2023-04-01T22:06:34;9.10;99.90
18648;DHT22;9453;50.294;18.644;2023-04-01T22:09:11;9.00;99.90
18648;DHT22;9453;50.294;18.644;2023-04-01T22:11:51;9.00;99.90
18648;DHT22;9453;50.294;18.644;2023-04-01T22:14:27;8.90;99.90
18648;DHT22;9453;50.294;18.644;2023-04-01T22:16:59;8.90;99.90
18648;DHT22;9453;50.294;18.644;2023-04-01T22:19:35;8.90;99.90
18648;DHT22;9453;50.294;18.644;2023-04-01T22:22:10;8.80;99.90
18648;DHT22;9453;50.294;18.644;2023-04-01T22:24:48;8.70;99.90
18648;DHT22;9453;50.294;18.644;2023-04-01T22:27:26;8.70;99.90
18648;DHT22;9453;50.294;18.644;2023-04-01T22:30:07;8.70;99.90
18648;DHT22;9453;50.294;18.644;2023-04-01T22:32:42;8.60;99.90
18648;DHT22;9453;50.294;18.644;2023-04-01T22:35:18;8.60;99.90